createdAt,value
2022-08-27T00:00:01.128Z,19.90
2022-08-27T00:02:27.917Z,19.90
2022-08-27T00:04:54.630Z,20.00
2022-08-27T00:07:21.364Z,20.00
2022-08-27T00:09:48.135Z,20.00
2022-08-27T00:12:14.828Z,20.00
2022-08-27T00:14:41.587Z,20.00
2022-08-27T00:17:08.483Z,20.00
2022-08-27T00:19:36.732Z,19.90
2022-08-27T00:22:05.622Z,20.00
2022-08-27T00:24:32.423Z,19.90
2022-08-27T00:27:21.512Z,19.90
2022-08-27T00:29:48.272Z,19.90
2022-08-27T00:32:15.540Z,19.90
2022-08-27T00:34:42.359Z,19.90
2022-08-27T00:37:09.167Z,19.80
2022-08-27T00:39:37.090Z,19.80
2022-08-27T00:42:07.863Z,19.80
2022-08-27T00:44:34.926Z,19.80
2022-08-27T00:47:06.892Z,19.90
2022-08-27T00:49:56.349Z,19.80
2022-08-27T00:52:40.407Z,19.80
2022-08-27T00:55:13.881Z,19.80
2022-08-27T00:57:45.173Z,19.80
2022-08-27T01:00:16.554Z,19.80
2022-08-27T01:02:43.758Z,19.80
2022-08-27T01:05:15.194Z,19.80
2022-08-27T01:07:44.222Z,19.80
2022-08-27T01:10:14.254Z,19.80
2022-08-27T01:12:41.179Z,19.80
2022-08-27T01:15:19.383Z,19.70
2022-08-27T01:17:48.300Z,19.80
2022-08-27T01:20:25.794Z,19.70
2022-08-27T01:23:16.530Z,19.80
2022-08-27T01:25:46.410Z,19.70
2022-08-27T01:28:14.239Z,19.70
2022-08-27T01:30:44.275Z,19.70
2022-08-27T01:33:14.617Z,19.70
2022-08-27T01:35:43.435Z,19.70
2022-08-27T01:38:18.914Z,19.70
2022-08-27T01:40:57.579Z,19.70
2022-08-27T01:43:24.927Z,19.70
2022-08-27T01:45:52.293Z,19.70
2022-08-27T01:48:21.250Z,19.70
2022-08-27T01:50:48.503Z,19.70
2022-08-27T01:53:19.042Z,19.70
2022-08-27T01:55:47.708Z,19.70
2022-08-27T01:58:15.885Z,19.70
2022-08-27T02:00:45.377Z,19.70
2022-08-27T02:03:12.832Z,19.70
2022-08-27T02:05:45.032Z,19.70
2022-08-27T02:08:13.486Z,19.70
2022-08-27T02:10:40.707Z,19.70
2022-08-27T02:13:08.201Z,19.80
2022-08-27T02:15:37.067Z,19.70
2022-08-27T02:18:04.957Z,19.70
2022-08-27T02:20:31.792Z,19.70
2022-08-27T02:22:58.984Z,19.70
2022-08-27T02:25:27.685Z,19.70
2022-08-27T02:27:54.624Z,19.70
2022-08-27T02:30:24.239Z,19.60
2022-08-27T02:32:52.955Z,19.60
2022-08-27T02:35:21.855Z,19.60
2022-08-27T02:37:49.404Z,19.60
2022-08-27T02:40:18.241Z,19.60
2022-08-27T02:42:46.009Z,19.60
2022-08-27T02:45:14.294Z,19.60
2022-08-27T02:47:41.258Z,19.60
2022-08-27T02:50:09.293Z,19.60
2022-08-27T02:52:36.648Z,19.60
2022-08-27T02:55:05.367Z,19.70
2022-08-27T02:57:36.478Z,19.70
2022-08-27T03:00:06.735Z,19.70
2022-08-27T03:02:33.564Z,19.70
2022-08-27T03:05:00.349Z,19.70
2022-08-27T03:07:30.166Z,19.80
2022-08-27T03:09:56.822Z,19.70
2022-08-27T03:12:24.821Z,19.80
2022-08-27T03:14:51.784Z,19.70
2022-08-27T03:17:37.043Z,19.70
2022-08-27T03:20:06.521Z,19.70
2022-08-27T03:22:33.227Z,19.80
2022-08-27T03:25:02.782Z,19.80
2022-08-27T03:27:29.601Z,19.80
2022-08-27T03:29:59.577Z,19.80
2022-08-27T03:32:28.856Z,19.80
2022-08-27T03:34:59.554Z,19.80
2022-08-27T03:37:26.436Z,19.80
2022-08-27T03:39:53.348Z,19.80
2022-08-27T03:42:20.149Z,19.80
2022-08-27T03:44:47.643Z,19.80
2022-08-27T03:47:14.499Z,19.80
2022-08-27T03:49:41.685Z,19.80
2022-08-27T03:52:09.070Z,19.80
2022-08-27T03:54:39.106Z,19.80
2022-08-27T03:57:06.539Z,19.80
2022-08-27T03:59:33.579Z,19.80
2022-08-27T04:02:01.325Z,19.80
2022-08-27T04:04:28.484Z,19.80
2022-08-27T04:06:55.221Z,19.80
2022-08-27T04:09:26.064Z,19.80
2022-08-27T04:11:52.782Z,19.80
2022-08-27T04:14:26.242Z,19.80
2022-08-27T04:16:56.147Z,19.80
2022-08-27T04:19:27.774Z,19.90
2022-08-27T04:22:01.024Z,19.90
2022-08-27T04:24:28.746Z,19.90
2022-08-27T04:26:55.670Z,19.90
2022-08-27T04:29:22.626Z,19.90
2022-08-27T04:31:50.236Z,19.90
2022-08-27T04:34:17.808Z,19.90
2022-08-27T04:36:46.101Z,20.00
2022-08-27T04:39:14.144Z,20.00
2022-08-27T04:41:41.608Z,19.90
2022-08-27T04:44:10.681Z,19.90
2022-08-27T04:46:39.912Z,20.00
2022-08-27T04:49:11.068Z,19.90
2022-08-27T04:51:39.909Z,20.00
2022-08-27T04:54:08.393Z,20.00
2022-08-27T04:56:36.798Z,20.00
2022-08-27T04:59:06.963Z,20.00
2022-08-27T05:01:34.795Z,20.00
2022-08-27T05:04:01.890Z,20.00
2022-08-27T05:06:29.125Z,20.00
2022-08-27T05:08:56.933Z,20.00
2022-08-27T05:11:27.231Z,20.10
2022-08-27T05:13:54.218Z,20.00
2022-08-27T05:16:23.411Z,20.10
2022-08-27T05:18:51.934Z,20.10
2022-08-27T05:21:23.481Z,20.10
2022-08-27T05:23:51.519Z,20.10
2022-08-27T05:26:19.015Z,20.10
2022-08-27T05:28:46.170Z,20.10
2022-08-27T05:31:15.274Z,20.20
2022-08-27T05:33:43.656Z,20.20
2022-08-27T05:36:31.551Z,20.20
2022-08-27T05:39:01.044Z,20.30
2022-08-27T05:41:33.888Z,20.30
2022-08-27T05:44:23.995Z,20.30
2022-08-27T05:46:52.585Z,20.30
2022-08-27T05:49:19.395Z,20.40
2022-08-27T05:51:46.096Z,20.40
2022-08-27T05:54:19.023Z,20.40
2022-08-27T05:56:46.523Z,20.50
2022-08-27T05:59:34.594Z,20.50
2022-08-27T06:02:02.788Z,20.60
2022-08-27T06:04:30.004Z,20.50
2022-08-27T06:06:56.832Z,20.50
2022-08-27T06:09:26.503Z,20.60
2022-08-27T06:11:54.487Z,20.60
2022-08-27T06:14:21.387Z,20.60
2022-08-27T06:16:48.758Z,20.70
2022-08-27T06:19:16.194Z,20.70
2022-08-27T06:21:43.512Z,20.70
2022-08-27T06:24:13.003Z,20.70
2022-08-27T06:26:42.284Z,20.70
2022-08-27T06:29:09.910Z,20.70
2022-08-27T06:31:37.409Z,20.70
2022-08-27T06:34:08.264Z,20.70
2022-08-27T06:36:40.802Z,20.70
2022-08-27T06:39:08.841Z,20.70
2022-08-27T06:41:35.732Z,20.70
2022-08-27T06:44:03.051Z,20.70
2022-08-27T06:46:30.179Z,20.80
2022-08-27T06:48:59.844Z,20.90
2022-08-27T06:51:32.417Z,20.90
2022-08-27T06:54:02.497Z,21.00
2022-08-27T06:56:30.131Z,21.00
2022-08-27T06:58:58.926Z,21.10
2022-08-27T07:01:31.572Z,21.10
2022-08-27T07:04:01.191Z,21.20
2022-08-27T07:06:30.151Z,21.30
2022-08-27T07:08:59.810Z,21.30
2022-08-27T07:11:28.595Z,21.40
2022-08-27T07:13:56.163Z,21.50
2022-08-27T07:16:25.690Z,21.60
2022-08-27T07:18:54.753Z,21.70
2022-08-27T07:21:22.969Z,21.70
2022-08-27T07:23:52.199Z,21.70
2022-08-27T07:26:21.687Z,21.80
2022-08-27T07:28:50.224Z,21.90
2022-08-27T07:31:20.184Z,22.00
2022-08-27T07:33:52.813Z,22.00
2022-08-27T07:36:23.701Z,21.90
2022-08-27T07:39:01.329Z,21.80
2022-08-27T07:41:57.741Z,21.80
2022-08-27T07:44:26.097Z,21.80
2022-08-27T07:46:55.840Z,21.80
2022-08-27T07:49:23.790Z,21.90
2022-08-27T07:51:50.941Z,21.90
2022-08-27T07:54:18.300Z,22.00
2022-08-27T07:56:49.543Z,22.00
2022-08-27T07:59:24.323Z,22.00
2022-08-27T08:01:51.747Z,22.10
2022-08-27T08:04:20.448Z,22.10
2022-08-27T08:06:48.578Z,22.10
2022-08-27T08:09:15.683Z,22.10
2022-08-27T08:11:45.865Z,22.10
2022-08-27T08:14:15.535Z,22.10
2022-08-27T08:16:45.863Z,22.10
2022-08-27T08:19:13.168Z,22.10
2022-08-27T08:21:40.214Z,22.30
2022-08-27T08:24:07.202Z,22.50
2022-08-27T08:26:34.153Z,22.60
2022-08-27T08:29:04.793Z,22.70
2022-08-27T08:31:31.825Z,22.70
2022-08-27T08:33:58.699Z,22.80
2022-08-27T08:36:25.493Z,22.70
2022-08-27T08:38:53.682Z,22.70
2022-08-27T08:41:52.374Z,22.40
2022-08-27T08:44:25.044Z,22.30
2022-08-27T08:47:15.836Z,22.20
2022-08-27T08:50:03.443Z,22.40
2022-08-27T08:52:48.481Z,22.30
2022-08-27T08:55:39.919Z,22.30
2022-08-27T08:58:31.969Z,22.30
2022-08-27T09:01:02.494Z,22.10
2022-08-27T09:03:33.013Z,22.00
2022-08-27T09:06:22.163Z,22.10
2022-08-27T09:08:49.237Z,22.10
2022-08-27T09:11:40.934Z,22.00
2022-08-27T09:14:34.282Z,22.00
2022-08-27T09:17:02.575Z,21.90
2022-08-27T09:19:36.193Z,21.80
2022-08-27T09:22:11.248Z,21.80
2022-08-27T09:25:02.640Z,21.70
2022-08-27T09:27:30.158Z,21.60
2022-08-27T09:29:57.533Z,21.60
2022-08-27T09:32:27.065Z,21.50
2022-08-27T09:34:58.367Z,21.60
2022-08-27T09:37:34.412Z,21.60
2022-08-27T09:40:23.697Z,21.60
2022-08-27T09:42:53.792Z,21.60
2022-08-27T09:45:29.870Z,21.70
2022-08-27T09:48:04.450Z,21.70
2022-08-27T09:50:43.711Z,21.70
2022-08-27T09:53:33.308Z,21.80
2022-08-27T09:56:03.222Z,21.70
2022-08-27T09:58:47.581Z,21.70
2022-08-27T10:01:18.836Z,21.60
2022-08-27T10:03:45.878Z,21.60
2022-08-27T10:06:12.910Z,21.70
2022-08-27T10:08:52.656Z,21.70
2022-08-27T10:11:29.515Z,21.70
2022-08-27T10:14:02.572Z,21.70
2022-08-27T10:16:41.282Z,21.70
2022-08-27T10:19:36.670Z,21.70
2022-08-27T10:22:16.918Z,21.80
2022-08-27T10:25:06.674Z,21.90
2022-08-27T10:27:49.761Z,22.00
2022-08-27T10:30:21.151Z,22.00
2022-08-27T10:33:03.836Z,22.00
2022-08-27T10:35:54.337Z,22.20
2022-08-27T10:38:42.458Z,22.30
2022-08-27T10:41:20.732Z,22.30
2022-08-27T10:44:06.296Z,22.40
2022-08-27T10:46:50.404Z,22.40
2022-08-27T10:49:26.762Z,22.40
2022-08-27T10:52:12.440Z,22.50
2022-08-27T10:54:43.035Z,22.60
2022-08-27T10:57:56.493Z,22.70
2022-08-27T11:00:42.998Z,22.70
2022-08-27T11:03:21.943Z,22.80
2022-08-27T11:05:51.045Z,22.90
2022-08-27T11:08:27.667Z,22.90
2022-08-27T11:11:26.095Z,23.10
2022-08-27T11:13:51.691Z,23.20
2022-08-27T11:16:27.372Z,23.20
2022-08-27T11:18:59.498Z,23.30
2022-08-27T11:21:43.586Z,23.50
2022-08-27T11:24:16.458Z,23.70
2022-08-27T11:26:44.333Z,23.70
2022-08-27T11:29:26.389Z,23.80
2022-08-27T11:32:15.691Z,23.60
2022-08-27T11:34:48.271Z,23.40
2022-08-27T11:37:21.715Z,23.50
2022-08-27T11:40:07.852Z,23.60
2022-08-27T11:42:42.132Z,23.70
2022-08-27T11:45:18.327Z,23.70
2022-08-27T11:48:00.729Z,23.70
2022-08-27T11:50:31.107Z,23.70
2022-08-27T11:53:06.270Z,23.90
2022-08-27T11:55:38.919Z,24.00
2022-08-27T11:58:07.903Z,24.20
2022-08-27T12:00:41.892Z,24.30
2022-08-27T12:03:26.497Z,24.40
2022-08-27T12:05:53.179Z,24.40
2022-08-27T12:08:22.627Z,24.40
2022-08-27T12:11:24.541Z,24.40
2022-08-27T12:14:12.342Z,24.50
2022-08-27T12:16:51.591Z,24.50
2022-08-27T12:19:56.887Z,24.50
2022-08-27T12:22:57.190Z,24.60
2022-08-27T12:25:25.368Z,24.70
2022-08-27T12:27:59.467Z,24.70
2022-08-27T12:30:49.220Z,24.90
2022-08-27T12:33:21.719Z,25.00
2022-08-27T12:35:52.509Z,24.70
2022-08-27T12:38:39.855Z,24.70
2022-08-27T12:41:11.318Z,24.80
2022-08-27T12:43:43.347Z,24.90
2022-08-27T12:46:19.170Z,25.20
2022-08-27T12:48:50.039Z,25.20
2022-08-27T12:51:23.616Z,25.20
2022-08-27T12:54:29.974Z,25.20
2022-08-27T12:57:23.287Z,25.40
2022-08-27T13:00:05.000Z,25.50
2022-08-27T13:02:50.885Z,25.60
2022-08-27T13:05:22.787Z,25.40
2022-08-27T13:07:51.202Z,25.10
2022-08-27T13:10:21.226Z,24.90
2022-08-27T13:12:59.433Z,24.90
2022-08-27T13:15:26.246Z,24.90
2022-08-27T13:17:53.083Z,24.90
2022-08-27T13:20:24.328Z,25.00
2022-08-27T13:22:53.379Z,25.00
2022-08-27T13:25:33.189Z,25.00
2022-08-27T13:28:17.036Z,24.90
2022-08-27T13:30:47.029Z,24.90
2022-08-27T13:33:19.487Z,25.10
2022-08-27T13:35:47.470Z,25.20
2022-08-27T13:38:15.845Z,25.30
2022-08-27T13:41:20.187Z,25.30
2022-08-27T13:43:48.939Z,25.20
2022-08-27T13:46:22.645Z,25.10
2022-08-27T13:48:52.887Z,25.00
2022-08-27T13:51:35.301Z,24.90
2022-08-27T13:54:15.965Z,24.90
2022-08-27T13:56:49.664Z,24.90
2022-08-27T13:59:30.346Z,24.80
2022-08-27T14:02:11.218Z,24.80
2022-08-27T14:04:40.559Z,24.90
2022-08-27T14:07:25.225Z,25.20
2022-08-27T14:10:02.105Z,25.60
2022-08-27T14:12:33.743Z,25.90
2022-08-27T14:15:23.262Z,26.10
2022-08-27T14:17:51.051Z,26.20
2022-08-27T14:20:19.491Z,26.50
2022-08-27T14:22:47.142Z,26.60
2022-08-27T14:25:15.515Z,26.20
2022-08-27T14:27:52.799Z,26.10
2022-08-27T14:30:29.069Z,26.10
2022-08-27T14:33:00.737Z,26.20
2022-08-27T14:35:30.063Z,26.30
2022-08-27T14:37:57.766Z,26.30
2022-08-27T14:40:24.601Z,26.20
2022-08-27T14:42:52.548Z,25.80
2022-08-27T14:45:19.569Z,25.60
2022-08-27T14:47:46.363Z,25.40
2022-08-27T14:50:14.027Z,25.40
2022-08-27T14:52:40.793Z,25.30
2022-08-27T14:55:10.830Z,25.20
2022-08-27T14:57:38.133Z,25.20
2022-08-27T15:00:07.095Z,25.10
2022-08-27T15:02:35.093Z,25.00
2022-08-27T15:05:03.400Z,24.90
2022-08-27T15:07:38.813Z,24.80
2022-08-27T15:10:09.582Z,24.70
2022-08-27T15:12:37.314Z,24.70
2022-08-27T15:15:05.660Z,24.60
2022-08-27T15:17:34.978Z,24.50
2022-08-27T15:20:08.057Z,24.50
2022-08-27T15:22:36.570Z,24.40
2022-08-27T15:25:05.473Z,24.40
2022-08-27T15:27:38.116Z,24.30
2022-08-27T15:30:11.600Z,24.30
2022-08-27T15:32:42.021Z,24.40
2022-08-27T15:35:14.049Z,24.40
2022-08-27T15:37:42.502Z,24.40
2022-08-27T15:40:10.656Z,24.50
2022-08-27T15:42:37.676Z,24.60
2022-08-27T15:45:05.620Z,24.70
2022-08-27T15:47:34.103Z,24.50
2022-08-27T15:50:01.058Z,24.60
2022-08-27T15:52:36.366Z,24.60
2022-08-27T15:55:17.913Z,24.60
2022-08-27T15:57:44.545Z,24.50
2022-08-27T16:00:12.004Z,24.30
2022-08-27T16:02:38.923Z,24.20
2022-08-27T16:05:06.218Z,24.20
2022-08-27T16:07:32.915Z,24.10
2022-08-27T16:09:59.541Z,24.00
2022-08-27T16:12:27.357Z,23.90
2022-08-27T16:14:55.558Z,23.80
2022-08-27T16:17:23.430Z,23.80
2022-08-27T16:19:50.094Z,23.70
2022-08-27T16:22:16.908Z,23.60
2022-08-27T16:24:44.351Z,23.60
2022-08-27T16:27:11.303Z,23.50
2022-08-27T16:29:37.955Z,23.40
2022-08-27T16:32:06.277Z,23.40
2022-08-27T16:34:35.210Z,23.40
2022-08-27T16:37:01.856Z,23.40
2022-08-27T16:39:33.749Z,23.30
2022-08-27T16:42:03.484Z,23.30
2022-08-27T16:44:31.431Z,23.30
2022-08-27T16:46:58.175Z,23.30
2022-08-27T16:49:43.275Z,23.20
2022-08-27T16:52:10.064Z,23.20
2022-08-27T16:54:37.157Z,23.20
2022-08-27T16:57:04.560Z,23.10
2022-08-27T16:59:31.225Z,23.10
2022-08-27T17:01:58.229Z,23.00
2022-08-27T17:04:31.233Z,23.00
2022-08-27T17:07:02.399Z,23.00
2022-08-27T17:09:30.243Z,22.90
2022-08-27T17:11:57.927Z,22.80
2022-08-27T17:14:25.000Z,22.80
2022-08-27T17:16:53.770Z,22.80
2022-08-27T17:19:22.285Z,22.80
2022-08-27T17:21:50.079Z,22.70
2022-08-27T17:24:17.468Z,22.70
2022-08-27T17:26:44.150Z,22.60
2022-08-27T17:29:11.059Z,22.60
2022-08-27T17:31:40.477Z,22.50
2022-08-27T17:34:15.416Z,22.60
2022-08-27T17:36:44.227Z,22.50
2022-08-27T17:39:11.534Z,22.50
2022-08-27T17:41:42.571Z,22.40
2022-08-27T17:44:38.984Z,22.40
2022-08-27T17:47:07.916Z,22.40
2022-08-27T17:49:35.343Z,22.30
2022-08-27T17:52:05.918Z,22.30
2022-08-27T17:54:40.339Z,22.30
2022-08-27T17:57:29.274Z,22.20
2022-08-27T17:59:59.443Z,22.20
2022-08-27T18:02:34.532Z,22.10
2022-08-27T18:05:01.599Z,22.10
2022-08-27T18:07:28.557Z,22.00
2022-08-27T18:09:55.477Z,22.00
2022-08-27T18:12:24.933Z,22.00
2022-08-27T18:15:26.912Z,21.90
2022-08-27T18:17:54.800Z,21.80
2022-08-27T18:20:26.168Z,21.80
2022-08-27T18:22:53.799Z,21.80
2022-08-27T18:25:24.887Z,21.70
2022-08-27T18:27:54.514Z,21.70
2022-08-27T18:30:21.575Z,21.70
2022-08-27T18:32:48.724Z,21.70
2022-08-27T18:35:20.085Z,21.70
2022-08-27T18:37:47.711Z,21.70
2022-08-27T18:40:16.778Z,21.60
2022-08-27T18:42:44.061Z,21.60
2022-08-27T18:45:15.504Z,21.60
2022-08-27T18:47:42.857Z,21.50
2022-08-27T18:50:17.553Z,21.50
2022-08-27T18:52:50.081Z,21.40
2022-08-27T18:55:19.293Z,21.40
2022-08-27T18:57:46.385Z,21.40
2022-08-27T19:00:15.647Z,21.40
2022-08-27T19:02:43.123Z,21.30
2022-08-27T19:05:11.146Z,21.20
2022-08-27T19:07:38.145Z,21.20
2022-08-27T19:10:06.409Z,21.20
2022-08-27T19:12:33.059Z,21.20
2022-08-27T19:14:59.925Z,21.20
2022-08-27T19:17:30.756Z,21.20
2022-08-27T19:19:57.942Z,21.30
2022-08-27T19:22:25.200Z,21.20
2022-08-27T19:24:52.758Z,21.10
2022-08-27T19:27:24.986Z,21.10
2022-08-27T19:29:52.952Z,21.10
2022-08-27T19:32:20.565Z,21.10
2022-08-27T19:34:47.873Z,21.10
2022-08-27T19:37:25.133Z,21.10
2022-08-27T19:39:52.428Z,21.00
2022-08-27T19:42:19.316Z,20.90
2022-08-27T19:44:46.079Z,21.00
2022-08-27T19:47:14.693Z,20.90
2022-08-27T19:49:44.877Z,20.80
2022-08-27T19:52:12.056Z,20.80
2022-08-27T19:54:51.993Z,20.80
2022-08-27T19:57:23.928Z,20.80
2022-08-27T19:59:50.595Z,20.70
2022-08-27T20:02:17.262Z,20.70
2022-08-27T20:05:01.337Z,20.60
2022-08-27T20:07:30.961Z,20.70
2022-08-27T20:10:08.042Z,20.60
2022-08-27T20:12:35.390Z,20.60
2022-08-27T20:15:02.051Z,20.60
2022-08-27T20:17:28.827Z,20.60
2022-08-27T20:19:56.071Z,20.60
2022-08-27T20:22:23.016Z,20.60
2022-08-27T20:24:49.700Z,20.60
2022-08-27T20:27:16.455Z,20.60
2022-08-27T20:29:43.345Z,20.60
2022-08-27T20:32:10.073Z,20.60
2022-08-27T20:34:37.433Z,20.50
2022-08-27T20:37:05.337Z,20.50
2022-08-27T20:39:32.689Z,20.50
2022-08-27T20:41:59.477Z,20.60
2022-08-27T20:44:26.363Z,20.60
2022-08-27T20:46:57.915Z,20.50
2022-08-27T20:49:24.584Z,20.50
2022-08-27T20:52:03.335Z,20.50
2022-08-27T20:54:32.122Z,20.40
2022-08-27T20:56:59.165Z,20.50
2022-08-27T20:59:44.816Z,20.40
2022-08-27T21:02:13.655Z,20.40
2022-08-27T21:04:43.214Z,20.40
2022-08-27T21:07:09.881Z,20.30
2022-08-27T21:09:55.473Z,20.30
2022-08-27T21:12:23.736Z,20.30
2022-08-27T21:14:55.701Z,20.40
2022-08-27T21:17:24.622Z,20.40
2022-08-27T21:19:51.695Z,20.40
2022-08-27T21:22:18.845Z,20.40
2022-08-27T21:24:47.401Z,20.30
2022-08-27T21:27:15.940Z,20.30
2022-08-27T21:29:44.750Z,20.30
2022-08-27T21:32:11.871Z,20.20
2022-08-27T21:34:38.642Z,20.30
2022-08-27T21:37:05.487Z,20.20
2022-08-27T21:39:34.171Z,20.20
2022-08-27T21:42:01.750Z,20.30
2022-08-27T21:44:30.350Z,20.20
2022-08-27T21:46:57.794Z,20.20
2022-08-27T21:49:24.580Z,20.20
2022-08-27T21:51:51.456Z,20.30
2022-08-27T21:54:18.199Z,20.30
2022-08-27T21:56:45.550Z,20.30
2022-08-27T21:59:12.289Z,20.30
2022-08-27T22:01:39.420Z,20.20
2022-08-27T22:04:06.373Z,20.10
2022-08-27T22:06:33.163Z,20.10
2022-08-27T22:08:59.962Z,20.10
2022-08-27T22:11:30.557Z,20.10
2022-08-27T22:13:57.641Z,20.20
2022-08-27T22:16:24.505Z,20.20
2022-08-27T22:18:54.476Z,20.10
2022-08-27T22:21:22.236Z,20.10
2022-08-27T22:23:51.362Z,20.20
2022-08-27T22:26:19.312Z,20.10
2022-08-27T22:28:46.134Z,20.10
2022-08-27T22:31:13.145Z,20.10
2022-08-27T22:33:39.981Z,20.10
2022-08-27T22:36:06.869Z,20.10
2022-08-27T22:38:33.766Z,20.10
2022-08-27T22:41:00.746Z,20.10
2022-08-27T22:43:27.831Z,20.10
2022-08-27T22:45:54.634Z,20.10
2022-08-27T22:48:21.313Z,20.10
2022-08-27T22:50:47.981Z,20.10
2022-08-27T22:53:14.791Z,20.10
2022-08-27T22:55:41.526Z,20.10
2022-08-27T22:58:08.280Z,20.10
2022-08-27T23:00:37.462Z,20.10
2022-08-27T23:03:06.761Z,20.00
2022-08-27T23:05:41.599Z,20.00
2022-08-27T23:08:10.598Z,20.00
2022-08-27T23:10:38.122Z,20.00
2022-08-27T23:13:05.823Z,20.10
2022-08-27T23:15:32.551Z,20.10
2022-08-27T23:18:01.462Z,20.00
2022-08-27T23:20:29.698Z,20.10
2022-08-27T23:22:57.061Z,20.10
2022-08-27T23:25:44.131Z,20.00
2022-08-27T23:28:14.652Z,20.00
2022-08-27T23:30:43.965Z,20.00
2022-08-27T23:33:11.673Z,20.00
2022-08-27T23:35:38.702Z,20.00
2022-08-27T23:38:05.772Z,20.00
2022-08-27T23:40:32.611Z,20.00
2022-08-27T23:42:59.509Z,20.00
2022-08-27T23:45:27.058Z,19.90
2022-08-27T23:47:53.937Z,19.90
2022-08-27T23:50:24.741Z,19.90
2022-08-27T23:53:01.703Z,19.90
2022-08-27T23:55:28.809Z,19.90
2022-08-27T23:57:57.686Z,19.90
